Time;durP1;ratioP1;P1;durP2;ratioP2;P2;SDS_P1;SDS_P2;PMS_P1;PMS_P2;Temp;Humidity;BMP_temperature;BMP_pressure;BME280_temperature;BME280_humidity;BME280_pressure;Samples;Min_cycle;Max_cycle;Signal;HPM_P1;HPM_P2
2022/10/09 00:01:01;;;;;;;2.85;0.50;;;6.60;99.90;;;;;;5028929;28;20044;-81
2022/10/09 00:03:27;;;;;;;3.60;0.90;;;6.60;99.90;;;;;;5045098;28;20083;-82
2022/10/09 00:05:52;;;;;;;2.92;0.73;;;6.60;99.90;;;;;;5029815;28;20032;-82
2022/10/09 00:08:18;;;;;;;3.28;0.80;;;6.60;99.90;;;;;;5029409;28;20453;-82
2022/10/09 00:10:44;;;;;;;3.35;1.33;;;6.60;99.90;;;;;;5046340;28;20028;-82
2022/10/09 00:13:10;;;;;;;4.35;2.00;;;6.50;99.90;;;;;;5044044;28;20516;-82
2022/10/09 00:15:38;;;;;;;5.30;2.08;;;6.50;99.90;;;;;;5047415;28;20395;-82
2022/10/09 00:18:05;;;;;;;6.93;2.25;;;6.50;99.90;;;;;;5062346;28;20021;-82
2022/10/09 00:20:36;;;;;;;5.65;3.13;;;6.50;99.90;;;;;;5060182;28;20033;-82
2022/10/09 00:23:02;;;;;;;6.00;3.15;;;6.40;99.90;;;;;;5046319;28;20024;-82
2022/10/09 00:25:27;;;;;;;6.65;2.58;;;6.40;99.90;;;;;;5029113;28;20121;-82
2022/10/09 00:27:55;;;;;;;5.13;2.88;;;6.40;99.90;;;;;;5029620;28;20074;-82
2022/10/09 00:30:21;;;;;;;4.70;2.05;;;6.40;99.90;;;;;;5028671;28;20433;-82
2022/10/09 00:32:46;;;;;;;6.93;2.58;;;6.30;99.90;;;;;;5012576;28;20021;-81
2022/10/09 00:35:12;;;;;;;5.88;2.08;;;6.40;99.90;;;;;;5062429;28;20056;-81
2022/10/09 00:37:37;;;;;;;4.13;1.40;;;6.50;99.90;;;;;;5029328;28;20057;-81
2022/10/09 00:40:03;;;;;;;3.85;1.00;;;6.40;99.90;;;;;;5029300;28;20025;-82
2022/10/09 00:42:29;;;;;;;2.70;0.88;;;6.30;99.90;;;;;;5045866;28;20455;-82
2022/10/09 00:45:00;;;;;;;3.15;0.88;;;6.30;99.90;;;;;;5028677;28;21304;-82
2022/10/09 00:47:39;;;;;;;2.42;0.73;;;6.20;99.90;;;;;;5046382;28;20119;-82
2022/10/09 00:50:17;;;;;;;3.03;0.93;;;6.30;99.90;;;;;;5029629;28;20029;-82
2022/10/09 00:52:43;;;;;;;1.75;0.50;;;6.30;99.90;;;;;;5046500;28;20385;-81
2022/10/09 00:55:09;;;;;;;2.97;0.82;;;6.30;99.90;;;;;;5061659;28;20361;-82
2022/10/09 00:57:37;;;;;;;2.42;0.50;;;6.20;99.90;;;;;;5029487;28;20116;-82
2022/10/09 01:00:07;;;;;;;2.08;0.50;;;6.20;99.90;;;;;;5046766;28;20037;-82
2022/10/09 01:02:33;;;;;;;1.98;0.50;;;6.10;99.90;;;;;;5029226;28;20029;-82
2022/10/09 01:04:59;;;;;;;1.50;0.45;;;6.00;99.90;;;;;;5046587;28;20013;-82
2022/10/09 01:07:42;;;;;;;3.45;0.98;;;5.90;99.90;;;;;;5028836;28;20496;-82
2022/10/09 01:10:52;;;;;;;2.38;0.40;;;6.00;99.90;;;;;;5028669;28;20020;-82
2022/10/09 01:13:30;;;;;;;1.15;0.43;;;6.10;99.90;;;;;;5041927;28;20056;-82
2022/10/09 01:16:25;;;;;;;1.58;0.40;;;5.90;99.90;;;;;;5031939;28;20029;-80
2022/10/09 01:19:04;;;;;;;2.72;0.50;;;5.90;99.90;;;;;;5048281;28;20477;-82
2022/10/09 01:21:40;;;;;;;1.67;0.40;;;6.00;99.90;;;;;;5049931;28;20037;-82
2022/10/09 01:24:21;;;;;;;2.63;0.50;;;6.00;99.90;;;;;;5035939;28;20659;-81
2022/10/09 01:27:03;;;;;;;2.42;0.50;;;5.90;99.90;;;;;;5032493;28;20028;-82
2022/10/09 01:29:42;;;;;;;2.42;0.50;;;5.90;99.90;;;;;;5031954;28;20431;-82
2022/10/09 01:32:11;;;;;;;2.92;0.60;;;5.90;99.90;;;;;;5048358;28;20516;-82
2022/10/09 01:34:39;;;;;;;2.20;0.47;;;5.90;99.90;;;;;;5032411;28;20032;-82
2022/10/09 01:37:06;;;;;;;2.58;0.50;;;5.60;99.90;;;;;;5048544;28;20373;-81
2022/10/09 01:39:34;;;;;;;2.63;0.60;;;5.70;99.90;;;;;;5032030;28;20036;-82
2022/10/09 01:42:01;;;;;;;1.88;0.50;;;5.90;99.90;;;;;;5064882;28;20076;-82
2022/10/09 01:44:29;;;;;;;3.70;0.80;;;5.80;99.90;;;;;;5049140;28;20114;-82
2022/10/09 01:46:55;;;;;;;3.63;0.60;;;5.80;99.90;;;;;;5014374;28;20033;-82
2022/10/09 01:49:53;;;;;;;3.40;0.90;;;5.80;99.90;;;;;;5031933;28;20125;-82
2022/10/09 01:52:37;;;;;;;2.78;0.82;;;5.90;99.90;;;;;;5049697;28;20048;-82
2022/10/09 01:55:31;;;;;;;1.65;0.60;;;5.90;99.90;;;;;;5063849;28;20044;-82
2022/10/09 01:58:15;;;;;;;2.65;0.95;;;6.10;99.90;;;;;;5064176;28;20082;-82
2022/10/09 02:00:50;;;;;;;2.85;1.00;;;5.90;99.90;;;;;;5032192;28;20084;-82
2022/10/09 02:03:17;;;;;;;2.38;0.60;;;5.90;99.90;;;;;;5015160;28;20021;-82
2022/10/09 02:05:45;;;;;;;2.22;0.60;;;5.80;99.90;;;;;;5048524;28;20112;-83
2022/10/09 02:08:15;;;;;;;2.78;0.80;;;5.80;99.90;;;;;;5049046;28;20031;-82
2022/10/09 02:10:43;;;;;;;1.83;0.60;;;5.80;99.90;;;;;;5031553;28;20024;-82
2022/10/09 02:13:08;;;;;;;3.13;0.60;;;5.80;99.90;;;;;;5031296;28;20495;-82
2022/10/09 02:15:45;;;;;;;1.73;0.60;;;5.80;99.90;;;;;;5014870;28;20116;-82
2022/10/09 02:18:13;;;;;;;4.40;0.73;;;5.80;99.90;;;;;;5031518;28;20082;-82
2022/10/09 02:20:44;;;;;;;1.85;0.60;;;5.80;99.90;;;;;;5031469;28;20443;-82
2022/10/09 02:23:11;;;;;;;2.97;0.60;;;5.70;99.90;;;;;;5048328;28;20028;-83
2022/10/09 02:25:38;;;;;;;1.95;0.70;;;5.70;99.90;;;;;;5029326;28;20443;-81
2022/10/09 02:28:04;;;;;;;2.72;0.60;;;5.50;99.90;;;;;;5048369;28;20036;-82
2022/10/09 02:30:40;;;;;;;2.17;0.60;;;5.50;99.90;;;;;;5014681;28;20036;-82
2022/10/09 02:33:06;;;;;;;3.13;0.55;;;5.60;99.90;;;;;;5048451;28;20182;-82
2022/10/09 02:35:32;;;;;;;3.53;0.73;;;5.60;99.90;;;;;;5013233;28;20063;-82
2022/10/09 02:37:57;;;;;;;2.25;0.68;;;5.50;99.90;;;;;;5014787;28;20025;-82
2022/10/09 02:40:23;;;;;;;2.08;0.60;;;5.60;99.90;;;;;;5048121;28;20048;-82
2022/10/09 02:42:48;;;;;;;2.65;0.50;;;5.60;99.90;;;;;;5029107;28;20049;-82
2022/10/09 02:45:14;;;;;;;2.00;0.60;;;5.50;99.90;;;;;;5063574;28;20046;-82
2022/10/09 02:47:40;;;;;;;1.30;0.52;;;5.60;99.90;;;;;;5047351;28;20029;-82
2022/10/09 02:50:06;;;;;;;2.78;0.55;;;5.60;99.90;;;;;;5014894;28;20029;-82
2022/10/09 02:52:32;;;;;;;2.70;0.60;;;5.40;99.90;;;;;;5030708;28;20075;-82
2022/10/09 02:54:58;;;;;;;2.15;0.50;;;5.40;99.90;;;;;;5030371;28;20558;-82
2022/10/09 02:57:23;;;;;;;3.03;0.75;;;5.40;99.90;;;;;;5030123;28;20041;-82
2022/10/09 02:59:49;;;;;;;1.50;0.50;;;5.40;99.90;;;;;;5061424;28;20035;-82
2022/10/09 03:02:15;;;;;;;1.63;0.43;;;5.50;99.90;;;;;;5029765;28;20037;-82
2022/10/09 03:04:40;;;;;;;1.88;0.52;;;5.40;99.90;;;;;;5030277;28;20032;-82
2022/10/09 03:07:06;;;;;;;2.97;0.75;;;5.40;99.90;;;;;;5047914;28;20420;-81
2022/10/09 03:09:31;;;;;;;3.70;0.98;;;5.50;99.90;;;;;;5013511;28;20029;-82
2022/10/09 03:11:57;;;;;;;2.20;0.77;;;5.40;99.90;;;;;;5048311;28;20017;-82
2022/10/09 03:14:23;;;;;;;2.83;1.33;;;5.30;99.90;;;;;;5029758;28;20469;-81
2022/10/09 03:16:48;;;;;;;2.75;1.17;;;5.30;99.90;;;;;;5030584;28;20028;-82
2022/10/09 03:19:14;;;;;;;2.53;0.95;;;5.40;99.90;;;;;;5047476;28;20025;-82
2022/10/09 03:21:39;;;;;;;4.43;1.15;;;5.30;99.90;;;;;;5045384;28;20045;-82
2022/10/09 03:24:05;;;;;;;2.72;1.10;;;5.20;99.90;;;;;;5029613;28;20040;-82
2022/10/09 03:26:31;;;;;;;5.20;1.27;;;5.30;99.90;;;;;;5047823;28;20025;-82
2022/10/09 03:28:56;;;;;;;4.65;1.10;;;5.30;99.90;;;;;;5063442;28;20025;-81
2022/10/09 03:31:25;;;;;;;4.43;1.05;;;5.30;99.90;;;;;;5013605;28;20033;-82
2022/10/09 03:33:50;;;;;;;3.65;1.25;;;5.20;99.90;;;;;;5062983;28;20044;-81
2022/10/09 03:36:16;;;;;;;2.13;0.75;;;5.30;99.90;;;;;;5062633;28;20033;-81
2022/10/09 03:38:42;;;;;;;2.22;0.70;;;5.30;99.90;;;;;;5047684;28;20029;-82
2022/10/09 03:41:07;;;;;;;2.70;0.70;;;5.40;99.90;;;;;;5011965;28;20072;-82
2022/10/09 03:43:34;;;;;;;2.95;0.70;;;5.20;99.90;;;;;;5046855;28;20114;-82
2022/10/09 03:46:05;;;;;;;2.55;0.60;;;5.10;99.90;;;;;;5030176;28;20029;-82
2022/10/09 03:48:31;;;;;;;1.83;0.50;;;5.30;99.90;;;;;;5047320;28;20025;-82
2022/10/09 03:50:56;;;;;;;2.33;0.70;;;5.30;99.90;;;;;;5030160;28;20028;-82
2022/10/09 03:53:22;;;;;;;2.38;0.60;;;5.20;99.90;;;;;;5028743;28;20033;-82
2022/10/09 03:55:48;;;;;;;2.70;0.50;;;5.10;99.90;;;;;;5047635;28;20033;-82
2022/10/09 03:58:13;;;;;;;1.83;0.55;;;5.00;99.90;;;;;;5012619;28;20033;-82
2022/10/09 04:00:39;;;;;;;3.10;0.60;;;5.10;99.90;;;;;;5027232;28;20033;-82
2022/10/09 04:03:04;;;;;;;2.15;0.60;;;5.00;99.90;;;;;;5029687;28;20063;-82
2022/10/09 04:05:34;;;;;;;3.42;0.50;;;5.00;99.90;;;;;;5029281;28;20040;-82
2022/10/09 04:08:00;;;;;;;1.60;0.50;;;4.90;99.90;;;;;;5012661;28;20117;-82
2022/10/09 04:10:25;;;;;;;2.03;0.60;;;5.10;99.90;;;;;;5046307;28;20098;-82
2022/10/09 04:12:51;;;;;;;1.73;0.50;;;5.00;99.90;;;;;;5047342;28;20032;-82
2022/10/09 04:15:17;;;;;;;1.98;0.50;;;4.90;99.90;;;;;;5047608;28;20032;-82
2022/10/09 04:17:42;;;;;;;2.05;0.50;;;4.90;99.90;;;;;;5029649;28;20032;-82
2022/10/09 04:20:08;;;;;;;2.08;0.52;;;4.90;99.90;;;;;;5029264;28;20053;-82
2022/10/09 04:22:34;;;;;;;3.17;0.60;;;4.80;99.90;;;;;;5045802;28;20083;-82
2022/10/09 04:24:59;;;;;;;2.17;0.60;;;4.90;99.90;;;;;;5029175;28;20039;-82
2022/10/09 04:27:25;;;;;;;2.30;0.50;;;4.80;99.90;;;;;;5029041;28;20024;-82
2022/10/09 04:29:51;;;;;;;1.50;0.40;;;4.80;99.90;;;;;;5029056;28;20025;-81
2022/10/09 04:32:16;;;;;;;2.95;0.60;;;4.80;99.90;;;;;;5047080;28;20025;-82
2022/10/09 04:34:42;;;;;;;3.55;0.50;;;4.80;99.90;;;;;;5029781;28;20478;-82
2022/10/09 04:37:07;;;;;;;1.80;0.50;;;4.70;99.90;;;;;;5011124;28;20539;-82
2022/10/09 04:39:33;;;;;;;2.38;0.50;;;4.80;99.90;;;;;;5029619;28;20037;-82
2022/10/09 04:41:59;;;;;;;1.50;0.52;;;4.80;99.90;;;;;;5013026;28;20053;-82
2022/10/09 04:44:24;;;;;;;2.25;0.60;;;4.80;99.90;;;;;;5012798;28;20112;-82
2022/10/09 04:46:50;;;;;;;2.50;0.60;;;4.70;99.90;;;;;;5028980;28;20032;-82
2022/10/09 04:49:16;;;;;;;1.13;0.40;;;4.90;99.90;;;;;;5050104;28;20029;-82
2022/10/09 04:51:43;;;;;;;2.30;0.50;;;4.70;99.90;;;;;;5050579;28;20021;-82
2022/10/09 04:54:09;;;;;;;1.42;0.50;;;4.70;99.90;;;;;;5049194;28;20032;-82
2022/10/09 04:56:35;;;;;;;1.92;0.50;;;4.60;99.90;;;;;;5032632;28;20044;-82
2022/10/09 04:59:01;;;;;;;1.90;0.60;;;4.60;99.90;;;;;;5033345;28;20400;-82
2022/10/09 05:01:28;;;;;;;3.47;0.50;;;4.60;99.90;;;;;;5049618;28;20045;-82
2022/10/09 05:03:54;;;;;;;2.10;0.50;;;4.60;99.90;;;;;;5049827;28;20426;-82
2022/10/09 05:06:21;;;;;;;2.38;0.50;;;4.50;99.90;;;;;;5048466;28;20139;-82
2022/10/09 05:08:47;;;;;;;2.63;0.60;;;4.40;99.90;;;;;;5050135;28;20122;-82
2022/10/09 05:11:16;;;;;;;1.67;0.50;;;4.50;99.90;;;;;;5050269;28;20021;-82
2022/10/09 05:13:47;;;;;;;1.70;0.50;;;4.60;99.90;;;;;;5065625;28;20103;-82
2022/10/09 05:16:15;;;;;;;3.38;0.50;;;4.50;99.90;;;;;;5065585;28;20028;-82
2022/10/09 05:18:46;;;;;;;2.05;0.50;;;4.30;99.90;;;;;;5033056;28;20365;-82
2022/10/09 05:21:12;;;;;;;2.40;0.50;;;4.30;99.90;;;;;;5019914;28;20083;-82
2022/10/09 05:23:38;;;;;;;1.85;0.50;;;4.30;99.90;;;;;;5048972;28;20384;-82
2022/10/09 05:26:07;;;;;;;2.75;0.60;;;4.40;99.90;;;;;;5066116;28;20115;-82
2022/10/09 05:28:34;;;;;;;1.65;0.50;;;4.50;99.90;;;;;;5032618;28;20465;-82
2022/10/09 05:31:05;;;;;;;1.33;0.50;;;4.50;99.90;;;;;;5030715;28;20037;-82
2022/10/09 05:33:31;;;;;;;2.65;0.60;;;4.50;99.90;;;;;;5013661;28;20033;-82
2022/10/09 05:35:59;;;;;;;2.97;0.50;;;4.60;99.90;;;;;;5011827;28;20043;-82
2022/10/09 05:38:26;;;;;;;2.08;0.45;;;4.60;99.90;;;;;;5011558;28;20146;-82
2022/10/09 05:40:54;;;;;;;1.33;0.43;;;4.50;99.90;;;;;;4994638;28;20045;-82
2022/10/09 05:43:26;;;;;;;3.05;0.50;;;4.50;99.90;;;;;;5043767;28;20049;-82
2022/10/09 05:45:52;;;;;;;1.63;0.40;;;4.50;99.90;;;;;;5010765;28;20036;-82
2022/10/09 05:48:18;;;;;;;1.15;0.40;;;4.40;99.90;;;;;;5015549;28;20037;-82
2022/10/09 05:50:45;;;;;;;1.50;0.50;;;4.40;99.90;;;;;;5031929;28;20044;-81
2022/10/09 05:53:11;;;;;;;1.85;0.60;;;4.50;99.90;;;;;;5027707;28;20107;-82
2022/10/09 05:55:36;;;;;;;1.58;0.50;;;4.40;99.90;;;;;;5027188;28;20041;-81
2022/10/09 05:58:03;;;;;;;4.07;0.50;;;4.30;99.90;;;;;;5015727;28;20037;-82
2022/10/09 06:00:30;;;;;;;1.55;0.60;;;4.30;99.90;;;;;;4998241;28;20563;-82
2022/10/09 06:02:55;;;;;;;3.03;0.60;;;4.20;99.90;;;;;;5015893;28;20045;-82
2022/10/09 06:05:22;;;;;;;2.42;0.50;;;4.20;99.90;;;;;;5027314;28;20048;-82
2022/10/09 06:07:47;;;;;;;4.53;0.90;;;4.30;99.90;;;;;;5027361;28;20040;-82
2022/10/09 06:10:13;;;;;;;1.80;0.70;;;4.30;99.90;;;;;;5026571;28;20503;-82
2022/10/09 06:12:39;;;;;;;1.85;0.70;;;4.40;99.90;;;;;;5016062;28;20045;-82
2022/10/09 06:15:05;;;;;;;2.10;0.60;;;4.50;99.90;;;;;;5010204;28;20397;-82
2022/10/09 06:17:32;;;;;;;2.67;0.70;;;4.50;99.90;;;;;;5025791;28;20033;-82
2022/10/09 06:19:57;;;;;;;1.42;0.50;;;4.50;99.90;;;;;;5015372;28;20067;-82
2022/10/09 06:22:23;;;;;;;2.58;0.88;;;4.50;99.90;;;;;;5026397;28;20049;-82
2022/10/09 06:24:49;;;;;;;1.10;0.50;;;4.50;99.90;;;;;;5030345;28;20029;-82
2022/10/09 06:27:14;;;;;;;3.05;1.15;;;4.50;99.90;;;;;;5048173;28;20389;-81
2022/10/09 06:29:40;;;;;;;1.48;0.60;;;4.40;99.90;;;;;;5014831;28;20025;-82
2022/10/09 06:32:06;;;;;;;2.85;0.60;;;4.50;99.90;;;;;;5022706;28;20029;-82
2022/10/09 06:34:31;;;;;;;1.88;0.60;;;4.50;99.90;;;;;;5025726;28;20034;-81
2022/10/09 06:36:57;;;;;;;3.45;0.70;;;4.70;99.90;;;;;;5018235;28;20041;-82
2022/10/09 06:39:25;;;;;;;3.65;0.70;;;5.00;99.90;;;;;;5047677;28;20025;-82
2022/10/09 06:41:50;;;;;;;2.10;0.70;;;4.80;99.90;;;;;;5046377;28;20073;-82
2022/10/09 06:44:36;;;;;;;2.72;0.60;;;4.70;99.90;;;;;;5063810;28;20029;-82
2022/10/09 06:47:01;;;;;;;3.50;0.80;;;4.60;99.90;;;;;;5028146;28;20040;-82
2022/10/09 06:49:27;;;;;;;2.58;0.80;;;4.70;99.90;;;;;;5028937;28;20459;-82
2022/10/09 06:51:53;;;;;;;2.92;1.23;;;4.70;99.90;;;;;;5029628;28;20489;-82
2022/10/09 06:54:18;;;;;;;3.75;1.17;;;4.80;99.90;;;;;;5047449;28;20123;-82
2022/10/09 06:56:44;;;;;;;2.88;1.08;;;5.00;99.90;;;;;;5029292;28;20142;-83
2022/10/09 06:59:10;;;;;;;3.80;1.00;;;5.20;99.90;;;;;;5046672;28;20446;-82
2022/10/09 07:01:36;;;;;;;3.40;1.40;;;5.40;99.90;;;;;;5047968;28;20136;-82
2022/10/09 07:04:08;;;;;;;4.10;1.08;;;5.40;99.90;;;;;;5045701;28;20111;-82
2022/10/09 07:06:38;;;;;;;3.95;1.00;;;5.60;99.90;;;;;;5029518;28;20040;-82
2022/10/09 07:09:06;;;;;;;;;;;5.50;99.90;;;;;;5048326;28;20044;-82
2022/10/09 07:11:37;;;;;;;3.08;1.00;;;5.50;99.90;;;;;;5054785;28;19953;-83
2022/10/09 07:14:06;;;;;;;3.33;0.82;;;5.50;99.90;;;;;;5013731;28;20032;-83
2022/10/09 07:16:43;;;;;;;2.47;0.90;;;5.60;99.90;;;;;;5062660;28;20072;-82
2022/10/09 07:19:10;;;;;;;3.33;0.90;;;5.70;99.90;;;;;;5029704;28;20044;-83
2022/10/09 07:21:38;;;;;;;3.45;1.17;;;5.90;99.90;;;;;;5029946;28;20585;-83
2022/10/09 07:24:05;;;;;;;5.47;1.77;;;6.10;99.90;;;;;;5019373;28;20025;-83
2022/10/09 07:26:33;;;;;;;2.03;0.90;;;6.10;99.90;;;;;;5028690;28;20040;-83
2022/10/09 07:28:59;;;;;;;6.35;1.10;;;6.30;99.90;;;;;;5013532;28;20028;-82
2022/10/09 07:31:24;;;;;;;3.30;0.90;;;6.40;99.90;;;;;;5029386;28;20057;-83
2022/10/09 07:33:52;;;;;;;3.40;1.10;;;6.50;99.90;;;;;;5048430;28;20488;-83
2022/10/09 07:36:18;;;;;;;4.75;1.48;;;6.60;99.90;;;;;;5029582;28;20060;-83
2022/10/09 07:38:49;;;;;;;3.17;1.33;;;6.90;99.90;;;;;;5029751;28;20025;-83
2022/10/09 07:41:14;;;;;;;4.85;1.42;;;7.00;99.90;;;;;;5046424;28;20773;-83
2022/10/09 07:43:41;;;;;;;2.58;1.40;;;7.20;99.90;;;;;;5030084;28;20091;-83
2022/10/09 07:46:10;;;;;;;2.28;0.98;;;7.30;99.90;;;;;;5046213;28;20615;-82
2022/10/09 07:48:37;;;;;;;3.70;1.55;;;7.40;99.90;;;;;;5030124;28;20134;-82
2022/10/09 07:51:07;;;;;;;5.43;1.30;;;7.60;99.90;;;;;;5029518;28;20080;-83
2022/10/09 07:53:32;;;;;;;3.80;1.23;;;7.80;99.90;;;;;;5028837;28;20025;-83
2022/10/09 07:55:58;;;;;;;3.83;1.23;;;7.90;99.90;;;;;;5029163;28;20043;-83
2022/10/09 07:58:24;;;;;;;2.30;1.10;;;8.10;99.90;;;;;;5045833;28;20078;-83
2022/10/09 08:00:50;;;;;;;5.30;1.00;;;8.30;99.90;;;;;;5046136;28;20483;-83
2022/10/09 08:03:15;;;;;;;4.45;1.50;;;8.50;99.90;;;;;;5062138;28;20574;-84
2022/10/09 08:05:41;;;;;;;3.10;1.10;;;8.70;99.90;;;;;;5047722;28;20542;-84
2022/10/09 08:08:07;;;;;;;3.10;1.23;;;8.80;99.90;;;;;;5046061;28;20504;-84
2022/10/09 08:10:33;;;;;;;3.63;1.30;;;9.00;99.90;;;;;;5046448;28;20068;-84
2022/10/09 08:12:58;;;;;;;6.15;1.52;;;9.20;99.90;;;;;;5047237;28;20017;-84
2022/10/09 08:15:25;;;;;;;4.63;1.33;;;9.30;99.90;;;;;;5047799;28;20179;-84
2022/10/09 08:17:54;;;;;;;3.83;1.20;;;9.60;99.90;;;;;;5028771;28;20020;-84
2022/10/09 08:20:20;;;;;;;3.30;1.40;;;9.80;99.90;;;;;;5028582;28;20024;-83
2022/10/09 08:22:46;;;;;;;5.30;1.10;;;9.90;99.90;;;;;;5030145;28;20061;-86
2022/10/09 08:25:12;;;;;;;4.30;1.10;;;10.10;99.90;;;;;;5050460;28;20523;-85
2022/10/09 08:27:37;;;;;;;3.70;1.40;;;10.20;99.90;;;;;;5033404;28;20388;-85
2022/10/09 08:30:04;;;;;;;4.50;1.40;;;10.40;99.90;;;;;;5051596;28;20338;-83
2022/10/09 08:32:29;;;;;;;2.13;1.20;;;10.50;99.90;;;;;;5051513;28;20025;-85
2022/10/09 08:34:55;;;;;;;4.30;1.45;;;10.60;99.90;;;;;;5033660;28;20552;-87
2022/10/09 08:37:20;;;;;;;3.70;1.20;;;10.70;99.90;;;;;;5033510;28;20496;-85
2022/10/09 08:39:46;;;;;;;3.30;1.33;;;10.90;99.90;;;;;;5033752;28;20063;-84
2022/10/09 08:42:26;;;;;;;5.50;1.00;;;11.00;99.90;;;;;;5031132;28;20172;-84
2022/10/09 08:44:52;;;;;;;;;;;11.20;99.90;;;;;;5018146;28;20017;-84
2022/10/09 08:47:23;;;;;;;4.00;1.20;;;11.30;99.90;;;;;;5033264;28;20268;-83
2022/10/09 08:50:09;;;;;;;4.45;1.33;;;11.50;99.90;;;;;;5049846;28;20430;-85
2022/10/09 08:53:03;;;;;;;2.97;1.17;;;11.70;99.90;;;;;;5049103;28;20052;-84
2022/10/09 08:55:35;;;;;;;4.03;1.63;;;11.70;99.90;;;;;;5033162;28;20029;-86
2022/10/09 08:58:04;;;;;;;2.88;1.48;;;11.80;99.90;;;;;;5051086;28;20020;-88
2022/10/09 09:00:48;;;;;;;5.93;1.20;;;12.00;99.90;;;;;;5048653;28;20037;-84
2022/10/09 09:03:28;;;;;;;4.65;1.08;;;12.10;99.90;;;;;;5064770;28;20453;-86
2022/10/09 09:06:17;;;;;;;2.72;1.20;;;12.30;99.90;;;;;;5066449;28;20115;-88
2022/10/09 09:08:49;;;;;;;2.55;0.70;;;12.40;99.90;;;;;;5051079;28;20479;-85
2022/10/09 09:11:49;;;;;;;3.15;0.80;;;12.50;99.90;;;;;;5032099;28;20029;-88
2022/10/09 09:14:35;;;;;;;2.47;1.00;;;12.60;99.90;;;;;;5050827;28;20023;-87
2022/10/09 09:17:18;;;;;;;1.77;0.60;;;12.80;99.90;;;;;;5032992;28;20136;-87
2022/10/09 09:19:56;;;;;;;3.38;0.60;;;13.10;99.90;;;;;;5030102;28;20527;-87
2022/10/09 09:22:23;;;;;;;2.35;0.60;;;13.20;99.90;;;;;;5049470;28;20131;-85
2022/10/09 09:24:54;;;;;;;2.38;0.80;;;13.30;99.90;;;;;;5022482;28;20025;-85
2022/10/09 09:27:33;;;;;;;2.92;0.70;;;13.20;99.90;;;;;;5031076;28;20044;-85
2022/10/09 09:30:25;;;;;;;3.55;1.02;;;13.50;99.90;;;;;;5032761;28;20025;-86
2022/10/09 09:33:12;;;;;;;2.95;0.98;;;13.50;99.90;;;;;;5066528;28;20086;-85
2022/10/09 09:36:07;;;;;;;2.42;0.93;;;13.60;99.90;;;;;;5048575;28;20258;-86
2022/10/09 09:38:33;;;;;;;2.42;0.60;;;13.70;99.90;;;;;;5049487;28;20155;-87
2022/10/09 09:40:59;;;;;;;2.95;1.00;;;13.90;99.90;;;;;;5049783;28;20518;-85
2022/10/09 09:43:25;;;;;;;3.75;0.82;;;14.00;99.90;;;;;;5065445;28;20059;-86
2022/10/09 09:45:56;;;;;;;2.88;0.80;;;14.10;99.90;;;;;;5049410;28;20083;-86
2022/10/09 09:48:39;;;;;;;2.33;0.60;;;14.20;99.90;;;;;;5066103;28;20384;-86
2022/10/09 09:51:18;;;;;;;3.58;0.90;;;14.30;99.90;;;;;;5034827;28;20025;-86
2022/10/09 09:54:00;;;;;;;3.17;0.80;;;14.20;99.90;;;;;;5037090;28;20028;-88
2022/10/09 09:56:38;;;;;;;1.75;0.60;;;14.30;99.90;;;;;;5016001;28;20068;-89
2022/10/09 09:59:06;;;;;;;1.48;0.60;;;14.60;99.90;;;;;;5050358;28;20086;-86
2022/10/09 10:01:32;;;;;;;1.67;0.63;;;14.80;99.90;;;;;;5048749;28;20121;-90
2022/10/09 10:04:26;;;;;;;2.60;0.70;;;14.70;99.90;;;;;;5048687;28;20095;-85
2022/10/09 10:06:53;;;;;;;3.53;1.10;;;14.70;99.90;;;;;;5033623;28;20468;-86
2022/10/09 10:09:19;;;;;;;2.42;1.10;;;14.70;99.90;;;;;;5031958;28;20025;-87
2022/10/09 10:11:57;;;;;;;2.83;1.00;;;14.90;99.90;;;;;;5050286;28;20037;-88
2022/10/09 10:14:23;;;;;;;1.70;0.60;;;14.90;99.90;;;;;;5032348;28;20044;-86
2022/10/09 10:16:51;;;;;;;3.72;0.88;;;15.10;99.90;;;;;;5050326;28;20048;-87
2022/10/09 10:19:25;;;;;;;1.80;0.60;;;15.10;99.90;;;;;;5026336;28;20462;-85
2022/10/09 10:22:01;;;;;;;3.38;0.70;;;15.20;99.90;;;;;;5049437;28;20036;-86
2022/10/09 10:24:44;;;;;;;3.45;0.93;;;15.30;99.90;;;;;;5031231;28;20041;-88
2022/10/09 10:27:20;;;;;;;4.20;0.85;;;15.40;99.90;;;;;;5031609;28;20029;-88
2022/10/09 10:29:48;;;;;;;4.13;0.80;;;15.30;99.90;;;;;;5049786;28;20043;-86
2022/10/09 10:32:33;;;;;;;2.40;0.70;;;15.40;99.90;;;;;;5015819;28;20017;-89
2022/10/09 10:35:16;;;;;;;3.75;0.90;;;15.60;99.90;;;;;;5049909;28;20028;-86
2022/10/09 10:38:05;;;;;;;3.08;0.70;;;15.70;99.90;;;;;;5015023;28;20059;-88
2022/10/09 10:40:36;;;;;;;2.88;0.50;;;15.70;99.90;;;;;;5030805;28;20040;-89
2022/10/09 10:43:08;;;;;;;1.63;0.50;;;15.90;99.90;;;;;;5062501;28;20052;-88
2022/10/09 10:45:42;;;;;;;2.92;0.73;;;15.90;99.90;;;;;;5047656;28;20037;-88
2022/10/09 10:48:27;;;;;;;2.00;0.60;;;15.80;99.90;;;;;;5047398;28;20041;-90
2022/10/09 10:51:14;;;;;;;3.25;0.52;;;15.90;99.90;;;;;;5030726;28;20028;-87
2022/10/09 10:54:07;;;;;;;2.50;0.80;;;16.10;99.90;;;;;;5063560;28;20245;-88
2022/10/09 10:56:39;;;;;;;2.97;0.57;;;16.20;99.90;;;;;;5029491;28;20041;-87
2022/10/09 10:59:23;;;;;;;1.52;0.60;;;16.20;99.90;;;;;;5049416;28;20075;-89
2022/10/09 11:02:08;;;;;;;3.50;0.70;;;16.20;99.90;;;;;;5014483;28;20067;-84
2022/10/09 11:04:57;;;;;;;3.85;0.90;;;16.00;99.90;;;;;;5030906;28;20032;-89
2022/10/09 11:07:51;;;;;;;1.38;0.43;;;16.10;99.90;;;;;;5027197;28;20028;-85
2022/10/09 11:10:50;;;;;;;2.17;0.50;;;16.30;99.90;;;;;;5046487;28;20112;-91
2022/10/09 11:13:31;;;;;;;2.38;0.55;;;15.90;99.90;;;;;;5030502;28;20032;-84
2022/10/09 11:16:19;;;;;;;1.92;0.40;;;16.20;99.90;;;;;;5047157;28;20033;-83
2022/10/09 11:19:00;;;;;;;1.25;0.30;;;16.40;99.90;;;;;;5049391;28;20086;-88
2022/10/09 11:21:35;;;;;;;2.97;0.40;;;16.40;99.90;;;;;;5013267;28;20048;-85
2022/10/09 11:24:01;;;;;;;2.63;0.40;;;16.40;99.90;;;;;;5046763;28;20056;-85
2022/10/09 11:26:48;;;;;;;2.05;0.35;;;16.30;99.90;;;;;;5048174;28;20063;-86
2022/10/09 11:29:20;;;;;;;2.28;0.30;;;16.50;99.90;;;;;;5029945;28;20025;-87
2022/10/09 11:31:52;;;;;;;1.73;0.50;;;16.70;99.90;;;;;;5047084;28;20068;-86
2022/10/09 11:34:25;;;;;;;1.55;0.30;;;16.60;99.90;;;;;;5012847;28;20044;-85
2022/10/09 11:36:52;;;;;;;1.80;0.38;;;16.70;99.90;;;;;;5014629;28;20124;-85
2022/10/09 11:39:21;;;;;;;2.33;0.40;;;16.80;99.90;;;;;;5046818;28;20531;-85
2022/10/09 11:41:49;;;;;;;2.50;0.30;;;16.90;99.90;;;;;;5048235;28;20063;-89
2022/10/09 11:44:41;;;;;;;2.05;0.30;;;16.90;99.90;;;;;;5047726;28;20087;-86
2022/10/09 11:47:30;;;;;;;1.38;0.30;;;16.60;99.90;;;;;;5011344;28;20403;-87
2022/10/09 11:50:33;;;;;;;1.50;0.30;;;16.80;99.90;;;;;;5029508;28;20384;-87
2022/10/09 11:53:07;;;;;;;2.25;0.20;;;17.00;99.90;;;;;;5046447;28;20036;-87
2022/10/09 11:55:33;;;;;;;1.05;0.20;;;16.90;99.90;;;;;;5030142;28;20489;-88
2022/10/09 11:58:19;;;;;;;0.65;0.20;;;16.90;99.90;;;;;;5062347;28;20469;-85
2022/10/09 12:00:49;;;;;;;1.20;0.25;;;16.90;99.90;;;;;;5029713;28;20084;-87
2022/10/09 12:03:23;;;;;;;1.10;0.28;;;16.80;99.90;;;;;;5047604;28;20025;-86
2022/10/09 12:05:50;;;;;;;1.88;0.20;;;16.90;99.90;;;;;;5029355;28;20068;-85
2022/10/09 12:08:25;;;;;;;1.33;0.20;;;17.00;99.90;;;;;;5028635;28;20067;-85
2022/10/09 12:10:58;;;;;;;2.90;0.22;;;17.00;99.90;;;;;;5014182;28;20021;-86
2022/10/09 12:13:35;;;;;;;1.75;0.20;;;17.00;99.90;;;;;;5028985;28;20090;-88
2022/10/09 12:16:02;;;;;;;0.77;0.10;;;17.00;99.90;;;;;;5027406;28;20033;-85
2022/10/09 12:18:29;;;;;;;0.63;0.10;;;17.00;99.90;;;;;;5047298;28;20021;-85
2022/10/09 12:20:58;;;;;;;2.80;0.25;;;17.10;99.90;;;;;;5028471;28;20120;-87
2022/10/09 12:23:28;;;;;;;0.93;0.20;;;17.10;99.90;;;;;;5060988;28;20125;-88
2022/10/09 12:25:55;;;;;;;1.67;0.20;;;17.20;99.90;;;;;;5047266;28;20230;-86
2022/10/09 12:28:33;;;;;;;1.58;0.38;;;17.20;99.90;;;;;;5029149;28;20430;-87
2022/10/09 12:31:02;;;;;;;2.17;0.40;;;17.10;99.90;;;;;;5045929;28;20017;-86
2022/10/09 12:33:38;;;;;;;1.92;0.20;;;17.20;99.90;;;;;;5029856;28;20563;-87
2022/10/09 12:36:20;;;;;;;1.45;0.30;;;17.20;99.90;;;;;;5028753;28;20025;-86
2022/10/09 12:38:46;;;;;;;2.22;0.40;;;17.30;99.90;;;;;;5046371;28;20238;-85
2022/10/09 12:41:20;;;;;;;1.23;0.30;;;17.30;99.90;;;;;;5029192;28;20404;-88
2022/10/09 12:43:48;;;;;;;1.25;0.25;;;17.40;99.90;;;;;;5029115;28;20122;-84
2022/10/09 12:46:23;;;;;;;2.20;0.20;;;17.30;99.90;;;;;;5045645;28;20029;-84
2022/10/09 12:48:49;;;;;;;0.90;0.20;;;17.20;99.90;;;;;;5045600;28;20028;-86
2022/10/09 12:51:25;;;;;;;0.82;0.20;;;17.20;99.90;;;;;;5047040;28;20402;-88
2022/10/09 12:53:54;;;;;;;2.03;0.20;;;17.30;99.90;;;;;;5028957;28;20071;-86
2022/10/09 12:56:30;;;;;;;0.98;0.20;;;17.40;99.90;;;;;;5028785;28;20037;-86
2022/10/09 12:58:58;;;;;;;2.88;0.20;;;17.40;99.90;;;;;;5047531;28;20021;-87
2022/10/09 13:01:24;;;;;;;0.80;0.20;;;17.60;99.90;;;;;;5012377;28;20476;-85
2022/10/09 13:03:56;;;;;;;0.98;0.13;;;17.50;99.90;;;;;;5010104;28;20040;-84
2022/10/09 13:06:33;;;;;;;1.15;0.13;;;17.60;99.90;;;;;;5045316;28;20127;-88
2022/10/09 13:09:01;;;;;;;3.15;0.20;;;17.60;99.90;;;;;;5064184;28;20128;-84
2022/10/09 13:11:32;;;;;;;0.80;0.20;;;17.50;99.90;;;;;;5049306;28;20472;-85